Time;durP1;ratioP1;P1;durP2;ratioP2;P2;SDS_P1;SDS_P2;PMS_P1;PMS_P2;Temp;Humidity;BMP_temperature;BMP_pressure;BME280_temperature;BME280_humidity;BME280_pressure;Samples;Min_cycle;Max_cycle;Signal;HPM_P1;HPM_P2
2022/04/02 00:01:33;;;;;;;;;;;1.10;99.90;;;-0.68;100.00;100882.97;2568306;30;138312;-41
2022/04/02 00:04:01;;;;;;;;;;;1.10;99.90;;;-0.68;100.00;100872.25;2571744;30;137959;-42
2022/04/02 00:06:28;;;;;;;;;;;1.10;99.90;;;-0.63;100.00;100880.72;2570491;30;138400;-41
2022/04/02 00:08:56;;;;;;;;;;;1.20;99.90;;;-0.63;100.00;100884.25;2568108;30;137036;-41
2022/04/02 00:11:24;;;;;;;;;;;1.20;99.90;;;-0.59;100.00;100876.75;2567539;30;137151;-41
2022/04/02 00:13:51;;;;;;;;;;;1.20;99.90;;;-0.62;100.00;100882.41;2568989;30;137968;-41
2022/04/02 00:16:19;;;;;;;;;;;1.20;99.90;;;-0.63;100.00;100880.72;2569778;30;137092;-42
2022/04/02 00:18:49;;;;;;;;;;;1.20;99.90;;;-0.60;100.00;100892.00;2570264;30;138179;-42
2022/04/02 00:21:17;;;;;;;;;;;1.20;99.90;;;-0.56;100.00;100891.72;2568193;30;139742;-41
2022/04/02 00:23:46;;;;;;;;;;;1.20;99.90;;;-0.59;100.00;100898.19;2569974;30;137211;-43
2022/04/02 00:26:16;;;;;;;;;;;1.30;99.90;;;-0.57;100.00;100890.88;2570293;30;138102;-41
2022/04/02 00:28:44;;;;;;;;;;;1.20;99.90;;;-0.55;100.00;100898.78;2569347;30;138060;-41
2022/04/02 00:31:13;;;;;;;;;;;1.30;99.90;;;-0.55;100.00;100896.09;2568301;30;139144;-41
2022/04/02 00:33:43;;;;;;;;;;;1.30;99.90;;;-0.54;100.00;100897.81;2570407;30;137044;-41
2022/04/02 00:36:12;;;;;;;;;;;1.20;99.90;;;-0.56;100.00;100897.94;2565737;30;136840;-41
2022/04/02 00:38:40;;;;;;;;;;;1.30;99.90;;;-0.49;100.00;100896.41;2568983;30;136688;-41
2022/04/02 00:41:08;;;;;;;;;;;1.30;99.90;;;-0.50;100.00;100892.03;2569520;30;139216;-41
2022/04/02 00:43:39;;;;;;;;;;;1.30;99.90;;;-0.58;100.00;100889.19;2570167;30;139391;-41
2022/04/02 00:46:11;;;;;;;;;;;1.30;99.90;;;-0.59;100.00;100898.19;2569779;30;138577;-42
2022/04/02 00:48:39;;;;;;;;;;;1.30;99.90;;;-0.55;100.00;100898.78;2570955;30;137209;-41
2022/04/02 00:51:11;;;;;;;;;;;1.30;99.90;;;-0.51;100.00;100887.66;2568426;30;138388;-41
2022/04/02 00:53:41;;;;;;;;;;;1.30;99.90;;;-0.57;100.00;100882.81;2568720;30;137036;-43
2022/04/02 00:56:09;;;;;;;;;;;1.30;99.90;;;-0.53;100.00;100900.34;2570609;30;138261;-43
2022/04/02 00:58:39;;;;;;;;;;;1.30;99.90;;;-0.51;100.00;100893.03;2566591;30;137819;-41
2022/04/02 01:01:12;;;;;;;;;;;1.30;99.90;;;-0.56;100.00;100897.94;2567591;30;138456;-41
2022/04/02 01:03:40;;;;;;;;;;;1.20;99.90;;;-0.53;100.00;100886.94;2569074;30;138245;-41
2022/04/02 01:06:09;;;;;;;;;;;1.30;99.90;;;-0.64;100.00;100892.41;2567129;30;140304;-44
2022/04/02 01:08:38;;;;;;;;;;;1.20;99.90;;;-0.58;100.00;100889.19;2571308;30;139223;-41
2022/04/02 01:11:07;;;;;;;;;;;1.20;99.90;;;-0.53;100.00;100892.31;2568069;30;140381;-41
2022/04/02 01:13:35;;;;;;;;;;;1.30;99.90;;;-0.47;100.00;100893.56;2569609;30;136686;-43
2022/04/02 01:16:06;;;;;;;;;;;1.30;99.90;;;-0.50;100.00;100897.41;2571036;30;138642;-41
2022/04/02 01:18:37;;;;;;;;;;;1.30;99.90;;;-0.53;100.00;100888.78;2568130;30;138606;-41
2022/04/02 01:21:05;;;;;;;;;;;1.30;99.90;;;-0.53;100.00;100907.53;2569089;30;138273;-46
2022/04/02 01:23:38;;;;;;;;;;;1.30;99.90;;;-0.47;100.00;100906.97;2570019;30;137030;-42
2022/04/02 01:28:13;;;;;;;;;;;1.30;99.90;;;-0.51;100.00;100906.41;2567354;30;156028;-40
2022/04/02 01:30:41;;;;;;;;;;;1.30;99.90;;;-0.47;100.00;100907.84;2567583;30;137136;-40
2022/04/02 01:33:09;;;;;;;;;;;1.30;99.90;;;-0.42;100.00;100904.72;2566404;30;140884;-40
2022/04/02 01:35:37;;;;;;;;;;;1.30;99.90;;;-0.46;100.00;100901.50;2566834;30;137039;-40
2022/04/02 01:38:17;;;;;;;;;;;1.40;99.90;;;-0.41;100.00;100900.22;2567525;30;140621;-40
2022/04/02 01:40:45;;;;;;;;;;;1.40;99.90;;;-0.44;100.00;100901.34;2567624;30;137982;-40
2022/04/02 01:43:15;;;;;;;;;;;1.40;99.90;;;-0.48;100.00;100900.78;2567258;30;139797;-40
2022/04/02 01:45:57;;;;;;;;;;;1.30;99.90;;;-0.41;100.00;100905.59;2567768;30;138221;-40
2022/04/02 01:48:29;;;;;;;;;;;1.40;99.90;;;-0.33;100.00;100905.72;2568016;30;140208;-40
2022/04/02 01:51:02;;;;;;;;;;;1.40;99.90;;;-0.36;100.00;100908.69;2567977;30;139510;-40
2022/04/02 01:53:32;;;;;;;;;;;1.40;99.90;;;-0.33;100.00;100906.59;2568812;30;137139;-40
2022/04/02 01:56:02;;;;;;;;;;;1.40;99.90;;;-0.33;100.00;100909.28;2568491;30;136858;-40
2022/04/02 01:58:39;;;;;;;;;;;1.50;99.90;;;-0.33;100.00;100911.94;2568480;30;139325;-41
2022/04/02 02:01:11;;;;;;;;;;;1.50;99.90;;;-0.34;100.00;100906.72;2568266;30;139154;-40
2022/04/02 02:03:39;;;;;;;;;;;1.50;99.90;;;-0.32;100.00;100910.09;2566912;30;139980;-40
2022/04/02 02:06:07;;;;;;;;;;;1.50;99.90;;;-0.25;100.00;100899.69;2568449;30;137056;-40
2022/04/02 02:08:38;;;;;;;;;;;1.50;99.90;;;-0.33;100.00;100898.53;2569075;30;138199;-41
2022/04/02 02:11:28;;;;;;;;;;;1.50;99.90;;;-0.30;100.00;100902.75;2567081;30;136931;-40
2022/04/02 02:14:14;;;;;;;;;;;1.50;99.90;;;-0.34;100.00;100904.91;2568881;30;137009;-40
2022/04/02 02:16:45;;;;;;;;;;;1.50;99.90;;;-0.40;100.00;100905.44;2568497;30;139167;-40
2022/04/02 02:19:13;;;;;;;;;;;1.40;99.90;;;-0.27;100.00;100907.00;2568701;30;140493;-40
2022/04/02 02:21:40;;;;;;;;;;;1.50;99.90;;;-0.25;100.00;100903.22;2568874;30;137290;-40
2022/04/02 02:24:16;;;;;;;;;;;1.50;99.90;;;-0.25;99.56;100910.41;2568225;30;137134;-40
2022/04/02 02:26:44;;;;;;;;;;;1.50;99.90;;;-0.28;99.33;100906.16;2567127;30;139311;-40
2022/04/02 02:29:22;;;;;;;;;;;1.50;99.90;;;-0.28;98.40;100908.84;2568235;30;138403;-40
2022/04/02 02:31:50;;;;;;;;;;;1.50;99.90;;;-0.23;99.40;100917.34;2568501;30;139081;-40
2022/04/02 02:37:09;;;;;;;;;;;1.50;99.90;;;-0.20;97.03;100918.88;2565353;30;138108;-40
2022/04/02 02:39:44;;;;;;;;;;;1.60;99.90;;;-0.23;96.52;100920.00;2569627;30;139681;-40
2022/04/02 02:42:18;;;;;;;;;;;1.60;99.90;;;-0.20;97.23;100921.56;2567258;30;139159;-40
2022/04/02 02:44:52;;;;;;;;;;;1.60;99.90;;;-0.21;97.38;100918.03;2566013;30;140106;-40
2022/04/02 02:47:21;;;;;;;;;;;1.60;99.90;;;-0.17;97.17;100923.94;2568192;30;138052;-40
2022/04/02 02:49:50;;;;;;;;;;;1.60;99.90;;;-0.25;96.82;100922.00;2567742;30;139673;-40
2022/04/02 02:52:28;;;;;;;;;;;1.60;99.90;;;-0.20;96.15;100919.72;2567947;30;139273;-40
2022/04/02 02:54:57;;;;;;;;;;;1.60;99.90;;;-0.22;97.23;100915.47;2566916;30;139868;-40
2022/04/02 02:57:25;;;;;;;;;;;1.60;99.90;;;-0.20;96.25;100919.72;2568653;30;139032;-40
2022/04/02 02:59:54;;;;;;;;;;;1.60;99.90;;;-0.21;93.79;100922.53;2568614;30;139756;-40
2022/04/02 03:02:22;;;;;;;;;;;1.60;99.90;;;-0.22;95.01;100931.56;2568070;30;138491;-40
2022/04/02 03:04:55;;;;;;;;;;;1.60;99.90;;;-0.28;94.72;100932.97;2568139;30;139415;-40
2022/04/02 03:07:41;;;;;;;;;;;1.50;99.90;;;-0.28;93.84;100926.78;2567761;30;140007;-40
2022/04/02 03:10:11;;;;;;;;;;;1.50;99.90;;;-0.25;94.87;100929.16;2568469;30;140102;-40
2022/04/02 03:12:39;;;;;;;;;;;1.50;99.90;;;-0.30;94.06;100933.13;2569132;30;136958;-41
2022/04/02 03:15:06;;;;;;;;;;;1.50;99.90;;;-0.25;93.84;100937.22;2567916;30;138177;-40
2022/04/02 03:17:35;;;;;;;;;;;1.50;99.90;;;-0.24;92.56;100944.28;2567571;30;139327;-41
2022/04/02 03:20:04;;;;;;;;;;;1.60;99.90;;;-0.26;94.42;100939.06;2567550;30;137365;-40
2022/04/02 03:22:39;;;;;;;;;;;1.50;99.90;;;-0.26;94.05;100938.22;2568910;30;137012;-40
2022/04/02 03:25:09;;;;;;;;;;;1.50;99.90;;;-0.19;93.60;100939.34;2568064;30;139301;-41
2022/04/02 03:27:37;;;;;;;;;;;1.60;99.90;;;-0.25;94.25;100942.59;2568207;30;138695;-40
2022/04/02 03:30:07;;;;;;;;;;;1.60;99.90;;;-0.23;91.82;100940.59;2567636;30;138585;-40
2022/04/02 03:32:36;;;;;;;;;;;1.60;99.90;;;-0.21;92.67;100947.53;2566194;30;139133;-40
2022/04/02 03:35:06;;;;;;;;;;;1.60;99.90;;;-0.17;91.49;100948.94;2567892;30;141427;-40
2022/04/02 03:37:38;;;;;;;;;;;1.60;99.90;;;-0.22;91.42;100947.66;2568115;30;138549;-40
2022/04/02 03:40:15;;;;;;;;;;;1.60;99.90;;;-0.20;91.73;100951.91;2567496;30;140111;-40
2022/04/02 03:42:45;;;;;;;;;;;1.60;99.90;;;-0.20;91.93;100949.22;2568967;30;138302;-40
2022/04/02 03:45:16;;;;;;;;;;;1.60;99.90;;;-0.19;91.89;100955.44;2567875;30;139588;-40
2022/04/02 03:47:47;;;;;;;;;;;1.60;99.90;;;-0.26;91.56;100959.66;2568617;30;138393;-40
2022/04/02 03:50:16;;;;;;;;;;;1.60;99.90;;;-0.31;90.30;100952.03;2567017;30;139664;-40
2022/04/02 03:52:48;;;;;;;;;;;1.50;99.90;;;-0.20;89.36;100964.47;2565690;30;138441;-40
2022/04/02 03:55:22;;;;;;;;;;;1.60;99.90;;;-0.20;89.79;100962.66;2569066;30;139673;-40
2022/04/02 03:57:50;;;;;;;;;;;1.60;99.90;;;-0.21;89.44;100966.31;2567777;30;139130;-40
2022/04/02 04:00:20;;;;;;;;;;;1.60;99.90;;;-0.25;89.61;100962.22;2568092;30;138484;-40
2022/04/02 04:03:10;;;;;;;;;;;1.60;99.90;;;-0.23;89.97;100968.28;2568654;30;138503;-40
2022/04/02 04:05:43;;;;;;;;;;;1.60;99.90;;;-0.18;90.62;100970.53;2566271;30;140463;-40
2022/04/02 04:08:12;;;;;;;;;;;1.60;99.90;;;-0.25;89.55;100972.06;2568252;30;137049;-40
2022/04/02 04:10:41;;;;;;;;;;;1.60;99.90;;;-0.20;89.34;100973.38;2568445;30;140708;-40
2022/04/02 04:13:09;;;;;;;;;;;1.60;99.90;;;-0.23;89.09;100967.41;2568210;30;137080;-40
2022/04/02 04:15:40;;;;;;;;;;;1.60;99.90;;;-0.18;88.77;100976.75;2567376;30;139886;-41
2022/04/02 04:18:09;;;;;;;;;;;1.60;99.90;;;-0.20;89.24;100976.06;2568479;30;138369;-40
2022/04/02 04:20:38;;;;;;;;;;;1.60;99.90;;;-0.27;89.03;100982.94;2567682;30;140630;-40
2022/04/02 04:23:08;;;;;;;;;;;1.50;99.90;;;-0.22;88.23;100986.06;2569154;30;137910;-40
2022/04/02 04:25:37;;;;;;;;;;;1.60;99.90;;;-0.21;89.01;100977.03;2568661;30;139767;-40
2022/04/02 04:28:06;;;;;;;;;;;1.60;99.90;;;-0.20;87.75;100980.56;2567120;30;137103;-41
2022/04/02 04:30:34;;;;;;;;;;;1.60;99.90;;;-0.25;88.70;100981.00;2568013;30;138988;-40
2022/04/02 04:33:02;;;;;;;;;;;1.60;99.90;;;-0.19;87.98;100982.25;2567179;30;138699;-40
2022/04/02 04:35:30;;;;;;;;;;;1.60;99.90;;;-0.22;87.71;100986.06;2566966;30;138625;-40
2022/04/02 04:37:58;;;;;;;;;;;1.60;99.90;;;-0.23;87.80;100994.25;2569124;30;137189;-40
2022/04/02 04:40:28;;;;;;;;;;;1.60;99.90;;;-0.18;86.20;100998.22;2568167;30;139151;-40
2022/04/02 04:42:58;;;;;;;;;;;1.60;99.90;;;-0.10;86.87;100994.84;2567595;30;138553;-40
2022/04/02 04:45:36;;;;;;;;;;;1.60;99.90;;;-0.19;88.08;100995.66;2567961;30;139598;-40
2022/04/02 04:48:05;;;;;;;;;;;1.60;99.90;;;-0.17;89.82;101010.63;2566989;30;139321;-40
2022/04/02 04:50:39;;;;;;;;;;;1.60;99.90;;;-0.15;87.21;101008.66;2566410;30;139694;-40
2022/04/02 04:53:10;;;;;;;;;;;1.60;99.90;;;-0.19;89.26;101009.06;2568342;30;138158;-40
2022/04/02 04:55:38;;;;;;;;;;;1.60;99.90;;;-0.14;88.15;101009.50;2568434;30;139483;-40
2022/04/02 04:58:07;;;;;;;;;;;1.60;99.90;;;-0.17;85.18;101010.63;2566533;30;137535;-40
2022/04/02 05:00:34;;;;;;;;;;;1.60;99.90;;;-0.13;86.47;101019.28;2566410;30;139776;-40
2022/04/02 05:03:04;;;;;;;;;;;1.70;99.90;;;-0.20;85.59;101024.31;2565962;30;138374;-40
2022/04/02 05:05:41;;;;;;;;;;;1.60;99.90;;;-0.12;86.58;101028.16;2567133;30;139749;-40
2022/04/02 05:08:13;;;;;;;;;;;1.60;99.90;;;-0.15;86.08;101019.41;2567902;30;139114;-40
2022/04/02 05:10:42;;;;;;;;;;;1.70;99.90;;;-0.11;84.38;101035.22;2567368;30;139493;-40
2022/04/02 05:13:15;;;;;;;;;;;1.70;99.90;;;-0.08;84.34;101025.06;2566575;30;138431;-40
2022/04/02 05:15:47;;;;;;;;;;;1.70;99.90;;;-0.12;83.07;101025.47;2568344;30;138241;-40
2022/04/02 05:18:16;;;;;;;;;;;1.70;99.90;;;-0.08;85.61;101034.94;2568241;30;137080;-40
2022/04/02 05:20:45;;;;;;;;;;;1.70;99.90;;;-0.10;83.39;101031.53;2567588;30;139813;-40
2022/04/02 05:23:12;;;;;;;;;;;1.70;99.90;;;-0.08;84.38;101032.25;2565050;30;137011;-40
2022/04/02 05:25:40;;;;;;;;;;;1.70;99.90;;;-0.04;84.92;101033.66;2568655;30;138401;-40
2022/04/02 05:28:11;;;;;;;;;;;1.70;99.90;;;-0.02;84.48;101037.06;2567747;30;138868;-40
2022/04/02 05:30:40;;;;;;;;;;;1.70;99.90;;;-0.08;83.11;101042.97;2566252;30;139760;-40
2022/04/02 05:33:08;;;;;;;;;;;1.70;99.90;;;0.02;85.63;101046.56;2568192;30;139083;-40
2022/04/02 05:35:56;;;;;;;;;;;1.80;99.90;;;-0.03;85.98;101052.31;2568324;30;138379;-40
2022/04/02 05:38:24;;;;;;;;;;;1.80;99.90;;;-0.02;85.55;101061.19;2569421;30;139494;-40
2022/04/02 05:40:52;;;;;;;;;;;1.80;99.90;;;0.02;87.37;101057.28;2567002;30;139816;-40
2022/04/02 05:43:20;;;;;;;;;;;1.80;99.90;;;-0.02;84.62;101058.53;2569435;30;138407;-40
2022/04/02 05:45:47;;;;;;;;;;;1.80;99.90;;;-0.02;84.89;101069.25;2567809;30;140709;-40
2022/04/02 05:48:17;;;;;;;;;;;1.80;99.90;;;0.02;81.61;101073.38;2568986;30;137091;-40
2022/04/02 05:50:44;;;;;;;;;;;1.80;99.90;;;0.06;84.23;101066.75;2567983;30;138250;-40
2022/04/02 05:53:12;;;;;;;;;;;1.80;99.90;;;0.03;86.13;101066.16;2568405;30;137319;-39
2022/04/02 05:55:41;;;;;;;;;;;1.80;99.90;;;0.06;83.92;101077.47;2566206;30;138135;-40
2022/04/02 05:58:11;;;;;;;;;;;1.80;99.90;;;0.12;82.78;101079.63;2567692;30;137870;-40
2022/04/02 06:00:39;;;;;;;;;;;1.90;99.90;;;0.09;83.28;101085.25;2568252;30;138240;-40
2022/04/02 06:03:07;;;;;;;;;;;1.90;99.90;;;0.10;82.62;101091.47;2568830;30;137321;-40
2022/04/02 06:05:36;;;;;;;;;;;1.90;99.90;;;0.14;82.01;101085.69;2567335;30;138200;-40
2022/04/02 06:08:04;;;;;;;;;;;1.90;99.90;;;0.14;83.63;101093.75;2568305;30;137929;-40
2022/04/02 06:10:31;;;;;;;;;;;1.90;99.90;;;0.14;83.15;101088.38;2569266;30;138554;-40
2022/04/02 06:12:59;;;;;;;;;;;1.90;99.90;;;0.17;82.52;101097.13;2568023;30;137845;-40
2022/04/02 06:15:27;;;;;;;;;;;1.90;99.90;;;0.14;80.74;101096.41;2567670;30;138357;-40
2022/04/02 06:17:55;;;;;;;;;;;1.90;99.90;;;0.21;80.07;101109.28;2567358;30;137473;-40
2022/04/02 06:20:22;;;;;;;;;;;2.00;99.90;;;0.20;80.68;101102.22;2566892;30;138370;-39
2022/04/02 06:22:49;;;;;;;;;;;2.00;99.90;;;0.28;81.24;101110.44;2568714;30;137777;-41
2022/04/02 06:25:17;;;;;;;;;;;2.00;99.90;;;0.27;81.28;101111.44;2568276;30;138194;-40
2022/04/02 06:27:45;;;;;;;;;;;2.00;99.90;;;0.29;81.38;101109.47;2568562;30;137105;-40
2022/04/02 06:30:22;;;;;;;;;;;2.00;99.90;;;0.33;82.38;101101.97;2568629;30;139325;-40
2022/04/02 06:32:54;;;;;;;;;;;2.10;99.90;;;0.36;81.61;101115.09;2565616;30;137008;-40
2022/04/02 06:35:23;;;;;;;;;;;2.10;99.90;;;0.41;80.14;101116.41;2568298;30;140968;-40
2022/04/02 06:37:51;;;;;;;;;;;2.20;99.90;;;0.45;81.42;101122.34;2566731;30;138137;-40
2022/04/02 06:40:18;;;;;;;;;;;2.20;99.90;;;0.47;81.75;101122.19;2569285;30;138103;-40
2022/04/02 06:42:46;;;;;;;;;;;2.20;99.90;;;0.51;81.58;101127.16;2567891;30;136630;-40
2022/04/02 06:45:24;;;;;;;;;;;2.20;99.90;;;0.43;80.87;101121.63;2569817;30;138191;-40
2022/04/02 06:47:53;;;;;;;;;;;2.30;99.90;;;0.58;82.38;101127.44;2567699;30;137014;-40
2022/04/02 06:50:23;;;;;;;;;;;2.30;99.90;;;0.59;81.07;101136.34;2568995;30;137297;-41
2022/04/02 06:52:50;;;;;;;;;;;2.30;99.90;;;0.65;79.01;101133.09;2569449;30;137229;-40
2022/04/02 06:55:18;;;;;;;;;;;2.40;99.90;;;0.67;79.97;101147.25;2567908;30;138109;-40
2022/04/02 06:57:52;;;;;;;;;;;2.40;99.90;;;0.67;81.22;101140.03;2567203;30;137472;-40
2022/04/02 07:00:21;;;;;;;;;;;2.40;99.90;;;0.73;78.62;101151.19;2567403;30;138034;-40
2022/04/02 07:02:49;;;;;;;;;;;2.50;99.90;;;0.69;79.90;101145.28;2566583;30;137293;-40
2022/04/02 07:05:18;;;;;;;;;;;2.50;99.90;;;0.74;78.74;101150.22;2567446;30;139008;-40
2022/04/02 07:07:47;;;;;;;;;;;2.50;99.90;;;0.81;78.88;101159.44;2568883;30;137165;-40
2022/04/02 07:10:14;;;;;;;;;;;2.60;99.90;;;0.84;77.66;101161.84;2568084;30;138395;-40
2022/04/02 07:12:42;;;;;;;;;;;2.60;99.90;;;0.82;76.73;101163.81;2568365;30;138907;-39
2022/04/02 07:15:10;;;;;;;;;;;2.60;99.90;;;0.90;79.35;101166.63;2568562;30;138222;-40
2022/04/02 07:17:37;;;;;;;;;;;2.60;99.90;;;0.92;77.31;101161.97;2569243;30;136638;-40
2022/04/02 07:20:06;;;;;;;;;;;2.70;99.90;;;0.94;77.14;101168.06;2568595;30;137378;-39
2022/04/02 07:22:36;;;;;;;;;;;2.70;99.90;;;0.98;77.36;101163.25;2568624;30;137041;-40
2022/04/02 07:25:04;;;;;;;;;;;2.70;99.90;;;1.01;76.89;101176.41;2568527;30;138240;-40
2022/04/02 07:27:31;;;;;;;;;;;2.80;99.90;;;0.98;77.61;101145.28;2575944;30;136937;-41
2022/04/02 07:30:03;;;;;;;;;;;2.80;99.90;;;1.10;77.22;101172.84;2570078;30;139354;-43
2022/04/02 07:32:30;;;;;;;;;;;2.80;99.90;;;1.13;76.71;101174.44;2569753;30;137323;-41
2022/04/02 07:34:58;;;;;;;;;;;2.80;99.90;;;1.14;77.21;101168.88;2572858;30;138733;-41
2022/04/02 07:37:56;;;;;;;;;;;2.90;99.90;;;1.15;75.99;101178.66;2569641;30;137100;-41
2022/04/02 07:40:29;;;;;;;;;;;2.90;99.90;;;1.23;77.31;101186.00;2568398;30;138773;-41
2022/04/02 07:43:22;;;;;;;;;;;2.90;99.90;;;1.25;73.76;101200.16;2570087;30;139444;-41
2022/04/02 07:46:06;;;;;;;;;;;3.00;99.90;;;1.32;76.86;101197.75;2571888;30;138353;-41
2022/04/02 07:48:37;;;;;;;;;;;3.00;99.90;;;1.44;75.49;101199.28;2569822;30;137118;-41
2022/04/02 07:51:12;;;;;;;;;;;3.10;99.90;;;1.57;78.62;101199.00;2569783;30;137715;-41
2022/04/02 07:53:48;;;;;;;;;;;3.20;99.90;;;1.61;75.54;101209.50;2569894;30;138043;-41
2022/04/02 07:56:26;;;;;;;;;;;3.30;99.90;;;1.63;72.89;101212.88;2569366;30;139850;-41
2022/04/02 07:59:02;;;;;;;;;;;3.30;99.90;;;1.64;74.74;101215.41;2570865;30;137129;-41
2022/04/02 08:01:30;;;;;;;;;;;3.30;99.90;;;1.72;74.51;101220.06;2569642;30;140575;-41
2022/04/02 08:04:04;;;;;;;;;;;3.40;99.90;;;1.78;75.56;101214.09;2568218;30;139176;-42
2022/04/02 08:06:32;;;;;;;;;;;3.40;99.90;;;1.89;75.54;101212.25;2569681;30;137999;-41
2022/04/02 08:09:00;;;;;;;;;;;3.60;99.90;;;2.02;75.62;101218.16;2571582;30;136803;-41
2022/04/02 08:11:33;;;;;;;;;;;3.70;99.90;;;1.99;73.91;101219.31;2569082;30;137361;-42
2022/04/02 08:14:01;;;;;;;;;;;3.70;99.90;;;2.14;75.84;101226.91;2570109;30;138004;-45
2022/04/02 08:16:30;;;;;;;;;;;3.80;99.90;;;2.09;73.64;101230.03;2571536;30;139085;-43
2022/04/02 08:19:01;;;;;;;;;;;3.80;99.90;;;2.35;76.24;101228.53;2569647;30;137018;-41
2022/04/02 08:21:30;;;;;;;;;;;3.90;99.90;;;2.34;73.15;101227.66;2570265;30;138140;-42
2022/04/02 08:23:57;;;;;;;;;;;4.00;99.90;;;2.42;71.72;101235.88;2569010;30;137233;-42
2022/04/02 08:27:00;;;;;;;;;;;4.10;99.90;;;2.31;71.83;101233.34;2567175;30;138474;-41
2022/04/02 08:29:50;;;;;;;;;;;4.10;99.90;;;2.18;70.46;101241.75;2571180;30;137230;-42
2022/04/02 08:32:31;;;;;;;;;;;3.90;99.90;;;2.19;70.26;101243.44;2570112;30;138532;-42
2022/04/02 08:35:10;;;;;;;;;;;3.90;99.90;;;2.12;72.28;101240.53;2568824;30;137247;-42
2022/04/02 08:37:59;;;;;;;;;;;3.80;99.90;;;2.21;72.00;101248.72;2571471;30;139078;-41
2022/04/02 08:40:40;;;;;;;;;;;3.90;99.90;;;2.32;69.52;101248.50;2569093;30;138015;-44
2022/04/02 08:43:43;;;;;;;;;;;4.00;99.90;;;2.59;72.81;101253.09;2570470;30;138292;-41
2022/04/02 08:46:19;;;;;;;;;;;4.20;99.90;;;2.70;70.61;101253.88;2569406;30;136951;-42
2022/04/02 08:48:58;;;;;;;;;;;4.30;99.90;;;2.68;68.78;101251.34;2569883;30;137741;-43
2022/04/02 08:51:46;;;;;;;;;;;4.30;99.90;;;2.58;69.01;101247.84;2569748;30;136698;-41
2022/04/02 08:54:27;;;;;;;;;;;4.30;99.90;;;2.74;70.76;101266.03;2570332;30;138538;-42
2022/04/02 08:57:27;;;;;;;;;;;4.40;99.90;;;2.76;69.77;101268.59;2570837;30;137825;-42
2022/04/02 09:00:07;;;;;;;;;;;4.40;99.90;;;2.67;67.60;101268.50;2570398;30;138300;-41
2022/04/02 09:03:09;;;;;;;;;;;4.50;99.90;;;2.56;68.36;101274.06;2569084;30;137172;-41
2022/04/02 09:06:10;;;;;;;;;;;4.30;99.90;;;2.65;69.97;101269.63;2570229;30;138285;-44
2022/04/02 09:08:55;;;;;;;;;;;4.30;99.90;;;2.88;71.36;101278.16;2569753;30;137899;-41
2022/04/02 09:11:28;;;;;;;;;;;4.50;99.90;;;3.04;72.06;101288.28;2568625;30;136812;-40
2022/04/02 09:14:26;;;;;;;;;;;4.60;99.90;;;3.12;71.21;101274.03;2571548;30;137876;-41
2022/04/02 09:17:03;;;;;;;;;;;4.70;99.90;;;3.38;73.31;101281.38;2570296;30;138225;-42
2022/04/02 09:19:49;;;;;;;;;;;4.90;99.90;;;3.31;68.61;101283.84;2570137;30;137857;-41
2022/04/02 09:22:33;;;;;;;;;;;4.90;99.90;;;3.09;65.78;101298.63;2568074;30;138573;-41
2022/04/02 09:25:15;;;;;;;;;;;4.90;99.90;;;3.16;66.92;101289.78;2570951;30;137011;-42
2022/04/02 09:27:48;;;;;;;;;;;4.90;99.90;;;3.08;66.77;101300.47;2567615;30;138491;-41
2022/04/02 09:30:25;;;;;;;;;;;4.80;99.90;;;2.92;66.89;101294.88;2565956;30;138115;-41
2022/04/02 09:33:23;;;;;;;;;;;4.70;99.90;;;2.99;68.33;101304.94;2569556;30;139014;-43
2022/04/02 09:36:09;;;;;;;;;;;4.70;99.90;;;2.77;65.57;101299.94;2569386;30;137929;-43
2022/04/02 09:38:51;;;;;;;;;;;4.50;99.90;;;2.90;65.61;101297.72;2569863;30;138545;-42
2022/04/02 09:41:40;;;;;;;;;;;4.60;99.90;;;2.99;67.10;101302.22;2568937;30;137307;-42
2022/04/02 09:44:29;;;;;;;;;;;4.70;99.90;;;3.27;67.15;101304.03;2568505;30;137707;-41
2022/04/02 09:47:05;;;;;;;;;;;4.80;99.90;;;3.29;66.15;101302.88;2569617;30;136968;-44
2022/04/02 09:50:02;;;;;;;;;;;4.90;99.90;;;3.15;64.29;101311.50;2568743;30;138987;-38
2022/04/02 09:52:32;;;;;;;;;;;4.90;99.80;;;3.45;67.34;101312.16;2569640;30;137207;-42
2022/04/02 09:55:20;;;;;;;;;;;5.00;99.90;;;3.58;68.14;101317.16;2569628;30;138507;-43
2022/04/02 09:58:09;;;;;;;;;;;5.10;99.90;;;3.57;65.03;101323.53;2569609;30;136850;-44
2022/04/02 10:00:50;;;;;;;;;;;5.30;98.90;;;3.76;67.68;101319.88;2567871;30;138435;-41
2022/04/02 10:03:36;;;;;;;;;;;5.30;99.90;;;3.86;64.04;101328.72;2570541;30;137055;-45
2022/04/02 10:06:25;;;;;;;;;;;5.50;99.20;;;4.00;64.84;101323.78;2568160;30;137522;-39
2022/04/02 10:09:06;;;;;;;;;;;5.60;98.90;;;4.00;64.79;101321.91;2570171;30;137260;-42
2022/04/02 10:11:39;;;;;;;;;;;5.60;99.90;;;4.08;65.51;101329.22;2570962;30;138122;-40
2022/04/02 10:14:07;;;;;;;;;;;5.70;99.90;;;3.86;64.62;101341.38;2567038;30;137324;-38
2022/04/02 10:16:35;;;;;;;;;;;5.60;99.60;;;3.41;63.38;101332.31;2568625;30;137207;-42
2022/04/02 10:19:08;;;;;;;;;;;5.30;98.00;;;3.42;63.03;101331.31;2569965;30;137477;-41
2022/04/02 10:21:38;;;;;;;;;;;5.20;98.10;;;3.23;65.43;101324.22;2570881;30;139246;-41
2022/04/02 10:24:24;;;;;;;;;;;5.10;99.70;;;3.20;65.75;101332.63;2567899;30;136751;-41
2022/04/02 10:26:55;;;;;;;;;;;4.90;99.50;;;3.20;64.69;101336.19;2570854;30;138271;-42
2022/04/02 10:30:04;;;;;;;;;;;4.90;99.30;;;3.28;66.92;101330.88;2568811;30;138046;-40
2022/04/02 10:32:53;;;;;;;;;;;5.00;99.90;;;3.28;66.33;101333.56;2573348;30;137645;-42
2022/04/02 10:35:23;;;;;;;;;;;5.00;99.90;;;3.20;67.12;101330.78;2572241;30;136854;-41
2022/04/02 10:38:11;;;;;;;;;;;4.90;99.90;;;3.06;69.00;101337.53;2569483;30;138824;-41
2022/04/02 10:40:52;;;;;;;;;;;4.80;99.90;;;2.86;67.91;101336.75;2570049;30;136670;-40
2022/04/02 10:43:30;;;;;;;;;;;4.70;99.90;;;2.81;68.64;101341.75;2570456;30;138632;-43
2022/04/02 10:46:00;;;;;;;;;;;4.60;99.90;;;2.67;69.35;101330.47;2570234;30;136665;-43
2022/04/02 10:48:50;;;;;;;;;;;4.50;99.90;;;2.87;70.79;101338.47;2568882;30;138170;-40
2022/04/02 10:51:26;;;;;;;;;;;4.50;99.90;;;3.06;69.92;101340.22;2567587;30;137207;-43
2022/04/02 10:54:07;;;;;;;;;;;4.60;99.90;;;3.17;69.04;101337.31;2569784;30;139052;-42
2022/04/02 10:56:41;;;;;;;;;;;4.80;99.90;;;3.18;67.66;101338.16;2569585;30;137228;-39
2022/04/02 10:59:10;;;;;;;;;;;4.80;99.90;;;3.27;69.47;101345.34;2569065;30;137909;-42
2022/04/02 11:01:52;;;;;;;;;;;4.90;99.90;;;3.29;71.54;101337.09;2569393;30;136753;-41
2022/04/02 11:04:27;;;;;;;;;;;4.90;99.90;;;3.27;69.93;101339.97;2569044;30;139425;-42
2022/04/02 11:06:56;;;;;;;;;;;4.90;99.90;;;3.09;76.68;101352.53;2568969;30;138113;-41
2022/04/02 11:09:39;;;;;;;;;;;4.90;99.90;;;3.12;78.54;101352.25;2569230;30;138181;-41
2022/04/02 11:12:09;;;;;;;;;;;4.80;99.90;;;3.02;78.42;101355.84;2570533;30;136876;-41
2022/04/02 11:14:50;;;;;;;;;;;4.70;99.90;;;3.13;78.57;101356.63;2570487;30;138176;-41
2022/04/02 11:17:35;;;;;;;;;;;4.80;99.90;;;3.47;79.57;101347.06;2569968;30;136945;-42
2022/04/02 11:20:15;;;;;;;;;;;5.00;99.90;;;3.71;78.06;101354.53;2568147;30;139021;-43
2022/04/02 11:22:51;;;;;;;;;;;5.20;99.90;;;3.65;76.42;101353.34;2568906;30;137124;-43
2022/04/02 11:25:31;;;;;;;;;;;5.30;99.90;;;3.47;70.29;101356.03;2569479;30;138289;-42
2022/04/02 11:28:04;;;;;;;;;;;5.20;99.90;;;3.16;74.62;101354.50;2569310;30;137695;-41
2022/04/02 11:30:34;;;;;;;;;;;5.00;99.90;;;3.05;74.16;101360.09;2570592;30;137780;-43
2022/04/02 11:33:12;;;;;;;;;;;4.90;99.90;;;3.17;77.57;101353.50;2569436;30;137205;-42
2022/04/02 11:35:46;;;;;;;;;;;4.90;99.90;;;3.08;74.22;101364.34;2571726;30;138195;-41
2022/04/02 11:38:23;;;;;;;;;;;4.80;99.90;;;3.22;75.98;101366.53;2569562;30;138334;-42
2022/04/02 11:41:02;;;;;;;;;;;4.90;99.90;;;3.15;75.80;101360.88;2570339;30;138203;-42
2022/04/02 11:43:36;;;;;;;;;;;4.90;99.90;;;3.04;75.04;101366.47;2568526;30;137067;-40
2022/04/02 11:46:06;;;;;;;;;;;4.90;99.90;;;3.07;75.87;101365.31;2570013;30;137949;-41